createdAt,value
2019-04-28T00:01:11.409Z,98655.42
2019-04-28T00:03:42.843Z,98655.42
2019-04-28T00:06:14.164Z,98656.23
2019-04-28T00:08:45.497Z,98656.67
2019-04-28T00:11:16.831Z,98668.35
2019-04-28T00:13:51.842Z,98667.66
2019-04-28T00:16:26.620Z,98667.66
2019-04-28T00:18:58.029Z,98685.70
2019-04-28T00:21:46.833Z,98685.70
2019-04-28T00:24:28.924Z,98683.53
2019-04-28T00:27:02.232Z,98692.81
2019-04-28T00:29:40.401Z,98710.48
2019-04-28T00:32:06.633Z,98694.58
2019-04-28T00:34:37.892Z,98700.02
2019-04-28T00:37:24.942Z,98702.28
2019-04-28T00:39:56.334Z,98711.48
2019-04-28T00:42:28.633Z,98711.48
2019-04-28T00:45:02.353Z,98714.64
2019-04-28T00:47:33.820Z,98714.64
2019-04-28T00:50:06.515Z,98717.45
2019-04-28T00:52:37.916Z,98720.20
2019-04-28T00:55:11.024Z,98725.20
2019-04-28T00:57:42.556Z,98732.64
2019-04-28T01:00:15.748Z,98727.23
2019-04-28T01:02:47.307Z,98731.64
2019-04-28T01:05:21.249Z,98739.05
2019-04-28T01:07:52.342Z,98742.05
2019-04-28T01:10:27.246Z,98746.31
2019-04-28T01:12:58.799Z,98749.86
2019-04-28T01:15:44.470Z,98756.39
2019-04-28T01:18:34.760Z,98755.77
2019-04-28T01:21:06.389Z,98768.14
2019-04-28T01:23:37.664Z,98768.14
2019-04-28T01:26:09.953Z,98765.95
2019-04-28T01:28:41.342Z,98765.83
2019-04-28T01:31:29.559Z,98770.69
2019-04-28T01:34:20.544Z,98769.65
2019-04-28T01:36:52.157Z,98767.63
2019-04-28T01:39:23.543Z,98774.98
2019-04-28T01:41:54.884Z,98774.98
2019-04-28T01:44:27.236Z,98777.00
2019-04-28T01:47:00.955Z,98773.53
2019-04-28T01:49:31.606Z,98775.67
2019-04-28T01:52:03.162Z,98780.61
2019-04-28T01:54:34.512Z,98775.41
2019-04-28T01:57:06.064Z,98776.53
2019-04-28T01:59:37.361Z,98768.24
2019-04-28T02:02:10.222Z,98770.26
2019-04-28T02:04:41.642Z,98761.70
2019-04-28T02:07:13.037Z,98761.70
2019-04-28T02:09:44.350Z,98760.45
2019-04-28T02:12:15.688Z,98756.25
2019-04-28T02:14:47.075Z,98762.30
2019-04-28T02:17:20.187Z,98764.06
2019-04-28T02:19:51.658Z,98762.81
2019-04-28T02:22:31.778Z,98758.73
2019-04-28T02:25:03.149Z,98758.73
2019-04-28T02:27:34.466Z,98761.58
2019-04-28T02:30:11.027Z,98758.91
2019-04-28T02:32:41.343Z,98749.41
2019-04-28T02:35:12.613Z,98749.41
2019-04-28T02:37:44.074Z,98757.15
2019-04-28T02:40:15.437Z,98754.56
2019-04-28T02:42:48.045Z,98750.83
2019-04-28T02:45:22.382Z,98743.31
2019-04-28T02:47:57.008Z,98751.78
2019-04-28T02:50:37.796Z,98751.78
2019-04-28T02:53:17.916Z,98757.70
2019-04-28T02:55:51.346Z,98757.70
2019-04-28T02:58:22.681Z,98761.11
2019-04-28T03:01:06.804Z,98762.04
2019-04-28T03:03:27.006Z,98763.68
2019-04-28T03:06:01.146Z,98765.78
2019-04-28T03:08:31.588Z,98763.84
2019-04-28T03:11:02.985Z,98776.09
2019-04-28T03:13:34.347Z,98776.61
2019-04-28T03:16:05.869Z,98771.11
2019-04-28T03:18:37.218Z,98773.05
2019-04-28T03:21:11.217Z,98776.52
2019-04-28T03:23:41.825Z,98770.25
2019-04-28T03:26:35.068Z,98770.16
2019-04-28T03:29:12.069Z,98770.16
2019-04-28T03:32:23.060Z,98773.44
2019-04-28T03:34:46.673Z,98771.88
2019-04-28T03:37:17.895Z,98770.16
2019-04-28T03:39:50.429Z,98767.41
2019-04-28T03:42:22.490Z,98768.22
2019-04-28T03:44:54.833Z,98777.68
2019-04-28T03:47:26.091Z,98777.46
2019-04-28T03:49:57.415Z,98771.05
2019-04-28T03:52:31.580Z,98775.91
2019-04-28T03:55:01.810Z,98791.89
2019-04-28T03:57:33.099Z,98781.20
2019-04-28T04:00:05.368Z,98776.83
2019-04-28T04:02:36.621Z,98781.77
2019-04-28T04:05:10.902Z,98788.03
2019-04-28T04:07:43.181Z,98787.77
2019-04-28T04:10:34.273Z,98796.08
2019-04-28T04:13:20.081Z,98791.66
2019-04-28T04:16:01.647Z,98789.81
2019-04-28T04:18:41.267Z,98789.67
2019-04-28T04:21:12.966Z,98787.37
2019-04-28T04:23:44.248Z,98787.37
2019-04-28T04:26:15.592Z,98785.60
2019-04-28T04:28:47.038Z,98790.57
2019-04-28T04:31:19.987Z,98790.31
2019-04-28T04:33:51.535Z,98793.55
2019-04-28T04:36:23.024Z,98787.95
2019-04-28T04:38:54.293Z,98788.69
2019-04-28T04:41:25.674Z,98796.22
2019-04-28T04:43:56.980Z,98796.22
2019-04-28T04:46:31.133Z,98796.43
2019-04-28T04:49:02.185Z,98794.80
2019-04-28T04:51:33.525Z,98803.00
2019-04-28T04:54:04.862Z,98802.41
2019-04-28T04:56:36.285Z,98805.14
2019-04-28T04:59:07.549Z,98809.44
2019-04-28T05:02:02.016Z,98809.44
2019-04-28T05:05:12.285Z,98815.58
2019-04-28T05:07:43.721Z,98815.58
2019-04-28T05:10:15.004Z,98824.64
2019-04-28T05:12:46.358Z,98820.39
2019-04-28T05:15:17.709Z,98829.56
2019-04-28T05:17:50.111Z,98828.84
2019-04-28T05:20:21.427Z,98831.66
2019-04-28T05:23:20.931Z,98842.66
2019-04-28T05:25:52.241Z,98844.80
2019-04-28T05:28:23.525Z,98842.00
2019-04-28T05:30:54.948Z,98841.79
2019-04-28T05:33:33.394Z,98844.34
2019-04-28T05:36:03.156Z,98848.55
2019-04-28T05:38:34.494Z,98851.52
2019-04-28T05:41:05.814Z,98854.50
2019-04-28T05:43:37.292Z,98860.12
2019-04-28T05:46:10.497Z,98862.89
2019-04-28T05:49:06.548Z,98853.57
2019-04-28T05:51:40.259Z,98862.59
2019-04-28T05:54:21.243Z,98858.31
2019-04-28T05:57:20.811Z,98865.01
2019-04-28T06:00:00.158Z,98863.84
2019-04-28T06:02:34.004Z,98867.59
2019-04-28T06:05:10.146Z,98862.25
2019-04-28T06:07:52.936Z,98860.77
2019-04-28T06:10:24.341Z,98867.05
2019-04-28T06:12:55.685Z,98875.81
2019-04-28T06:15:27.115Z,98884.66
2019-04-28T06:18:00.149Z,98884.66
2019-04-28T06:20:34.951Z,98882.94
2019-04-28T06:23:06.216Z,98875.13
2019-04-28T06:25:37.645Z,98883.85
2019-04-28T06:28:08.931Z,98883.85
2019-04-28T06:30:42.851Z,98886.52
2019-04-28T06:33:14.164Z,98886.41
2019-04-28T06:35:45.678Z,98886.41
2019-04-28T06:38:17.915Z,98885.97
2019-04-28T06:40:49.325Z,98888.93
2019-04-28T06:43:20.781Z,98896.80
2019-04-28T06:45:52.196Z,98896.80
2019-04-28T06:48:23.510Z,98894.42
2019-04-28T06:50:54.774Z,98894.42
2019-04-28T06:53:26.968Z,98877.34
2019-04-28T06:55:58.271Z,98877.34
2019-04-28T06:58:29.647Z,98878.84
2019-04-28T07:01:02.413Z,98873.69
2019-04-28T07:03:33.811Z,98878.81
2019-04-28T07:06:05.417Z,98883.66
2019-04-28T07:08:36.891Z,98884.77
2019-04-28T07:11:08.263Z,98884.77
2019-04-28T07:13:39.663Z,98878.67
2019-04-28T07:16:11.277Z,98875.84
2019-04-28T07:18:42.720Z,98881.22
2019-04-28T07:21:23.482Z,98883.53
2019-04-28T07:23:54.846Z,98883.66
2019-04-28T07:26:26.108Z,98881.84
2019-04-28T07:28:57.503Z,98881.84
2019-04-28T07:31:28.802Z,98875.03
2019-04-28T07:34:02.923Z,98875.77
2019-04-28T07:36:33.376Z,98875.77
2019-04-28T07:39:06.918Z,98877.99
2019-04-28T07:41:38.415Z,98877.99
2019-04-28T07:44:09.802Z,98875.03
2019-04-28T07:46:41.181Z,98877.70
2019-04-28T07:49:12.732Z,98871.83
2019-04-28T07:52:12.028Z,98862.33
2019-04-28T07:54:43.361Z,98862.33
2019-04-28T07:57:14.915Z,98858.27
2019-04-28T07:59:46.241Z,98865.56
2019-04-28T08:02:17.608Z,98868.84
2019-04-28T08:04:48.907Z,98868.84
2019-04-28T08:07:20.199Z,98864.50
2019-04-28T08:09:51.559Z,98865.33
2019-04-28T08:12:22.916Z,98859.14
2019-04-28T08:14:54.219Z,98863.17
2019-04-28T08:17:25.611Z,98876.03
2019-04-28T08:19:56.926Z,98876.03
2019-04-28T08:22:28.319Z,98871.95
2019-04-28T08:24:59.697Z,98875.28
2019-04-28T08:27:30.988Z,98879.01
2019-04-28T08:30:02.335Z,98876.20
2019-04-28T08:33:01.486Z,98876.20
2019-04-28T08:35:32.851Z,98885.47
2019-04-28T08:38:04.238Z,98866.91
2019-04-28T08:40:35.580Z,98866.91
2019-04-28T08:43:06.969Z,98870.94
2019-04-28T08:45:38.498Z,98878.31
2019-04-28T08:48:09.832Z,98878.31
2019-04-28T08:50:41.255Z,98870.86
2019-04-28T08:53:14.090Z,98870.86
2019-04-28T08:55:45.557Z,98867.94
2019-04-28T08:58:18.670Z,98871.14
2019-04-28T09:00:50.158Z,98873.42
2019-04-28T09:03:21.443Z,98868.27
2019-04-28T09:05:52.820Z,98870.58
2019-04-28T09:08:24.247Z,98878.52
2019-04-28T09:10:55.581Z,98877.23
2019-04-28T09:13:26.881Z,98869.38
2019-04-28T09:15:58.397Z,98869.38
2019-04-28T09:18:29.715Z,98867.67
2019-04-28T09:21:01.152Z,98863.95
2019-04-28T09:23:32.514Z,98862.90
2019-04-28T09:26:03.795Z,98868.80
2019-04-28T09:28:35.093Z,98866.59
2019-04-28T09:31:06.892Z,98861.78
2019-04-28T09:33:38.250Z,98860.97
2019-04-28T09:36:09.572Z,98853.66
2019-04-28T09:38:40.850Z,98841.11
2019-04-28T09:41:12.168Z,98852.48
2019-04-28T09:44:14.319Z,98843.73
2019-04-28T09:46:45.932Z,98846.70
2019-04-28T09:49:17.543Z,98848.56
2019-04-28T09:51:50.144Z,98845.58
2019-04-28T09:54:21.413Z,98849.02
2019-04-28T09:56:56.929Z,98846.32
2019-04-28T09:59:25.729Z,98853.33
2019-04-28T10:01:57.093Z,98853.84
2019-04-28T10:04:40.730Z,98853.01
2019-04-28T10:07:03.219Z,98846.34
2019-04-28T10:09:37.066Z,98845.80
2019-04-28T10:12:10.528Z,98845.83
2019-04-28T10:14:55.572Z,98845.59
2019-04-28T10:17:26.836Z,98852.83
2019-04-28T10:19:58.378Z,98856.09
2019-04-28T10:22:29.778Z,98859.36
2019-04-28T10:25:01.154Z,98852.89
2019-04-28T10:27:33.015Z,98841.63
2019-04-28T10:30:05.690Z,98849.19
2019-04-28T10:32:39.229Z,98836.30
2019-04-28T10:35:10.915Z,98838.70
2019-04-28T10:37:45.347Z,98842.73
2019-04-28T10:40:33.110Z,98841.13
2019-04-28T10:43:04.697Z,98833.59
2019-04-28T10:45:45.601Z,98833.63
2019-04-28T10:48:16.900Z,98830.64
2019-04-28T10:50:48.160Z,98826.09
2019-04-28T10:53:19.537Z,98830.38
2019-04-28T10:55:50.945Z,98829.59
2019-04-28T10:58:22.313Z,98811.95
2019-04-28T11:00:53.568Z,98816.56
2019-04-28T11:03:24.825Z,98800.11
2019-04-28T11:05:56.149Z,98797.47
2019-04-28T11:08:37.781Z,98807.98
2019-04-28T11:11:19.245Z,98785.13
2019-04-28T11:13:50.880Z,98786.95
2019-04-28T11:16:25.185Z,98790.00
2019-04-28T11:18:59.367Z,98795.56
2019-04-28T11:21:30.680Z,98791.80
2019-04-28T11:24:01.932Z,98789.89
2019-04-28T11:26:33.391Z,98784.20
2019-04-28T11:29:04.733Z,98782.16
2019-04-28T11:31:36.138Z,98793.77
2019-04-28T11:34:15.868Z,98801.64
2019-04-28T11:36:47.169Z,98803.80
2019-04-28T11:39:23.590Z,98805.95
2019-04-28T11:41:54.941Z,98809.17
2019-04-28T11:44:26.296Z,98813.98
2019-04-28T11:46:57.637Z,98826.34
2019-04-28T11:49:29.265Z,98821.78
2019-04-28T11:52:00.802Z,98813.48
2019-04-28T11:54:32.219Z,98827.68
2019-04-28T11:57:03.801Z,98825.81
2019-04-28T11:59:35.264Z,98823.15
2019-04-28T12:02:07.805Z,98825.55
2019-04-28T12:04:39.254Z,98826.09
2019-04-28T12:07:10.835Z,98808.10
2019-04-28T12:10:04.213Z,98799.11
2019-04-28T12:12:55.206Z,98786.41
2019-04-28T12:15:49.259Z,98776.31
2019-04-28T12:18:42.579Z,98781.78
2019-04-28T12:21:13.935Z,98759.14
2019-04-28T12:23:45.268Z,98754.27
2019-04-28T12:26:16.776Z,98760.20
2019-04-28T12:28:48.110Z,98756.47
2019-04-28T12:31:19.382Z,98753.68
2019-04-28T12:33:50.683Z,98753.31
2019-04-28T12:36:22.723Z,98756.98
2019-04-28T12:38:54.078Z,98747.68
2019-04-28T12:41:25.579Z,98747.39
2019-04-28T12:43:57.042Z,98740.34
2019-04-28T12:46:28.379Z,98752.06
2019-04-28T12:49:02.631Z,98745.40
2019-04-28T12:51:34.109Z,98751.03
2019-04-28T12:54:07.587Z,98744.51
2019-04-28T12:56:38.981Z,98735.95
2019-04-28T12:59:15.844Z,98730.89
2019-04-28T13:02:21.899Z,98728.76
2019-04-28T13:04:56.455Z,98726.89
2019-04-28T13:07:27.723Z,98728.72
2019-04-28T13:09:59.177Z,98728.17
2019-04-28T13:12:30.789Z,98712.45
2019-04-28T13:15:02.274Z,98716.66
2019-04-28T13:17:33.579Z,98700.64
2019-04-28T13:20:05.304Z,98710.89
2019-04-28T13:22:36.713Z,98710.33
2019-04-28T13:25:08.598Z,98713.77
2019-04-28T13:27:39.951Z,98710.15
2019-04-28T13:30:11.546Z,98700.82
2019-04-28T13:32:42.923Z,98702.64
2019-04-28T13:35:14.440Z,98702.28
2019-04-28T13:37:45.834Z,98699.66
2019-04-28T13:40:31.385Z,98701.34
2019-04-28T13:43:08.500Z,98696.64
2019-04-28T13:45:52.247Z,98677.40
2019-04-28T13:48:28.397Z,98690.67
2019-04-28T13:51:08.881Z,98677.80
2019-04-28T13:53:45.004Z,98679.23
2019-04-28T13:56:17.853Z,98678.61
2019-04-28T13:58:58.225Z,98678.37
2019-04-28T14:01:57.814Z,98678.28
2019-04-28T14:05:04.231Z,98669.30
2019-04-28T14:08:11.839Z,98669.06
2019-04-28T14:11:20.499Z,98666.41
2019-04-28T14:13:54.128Z,98652.80
2019-04-28T14:16:25.408Z,98650.35
2019-04-28T14:18:56.722Z,98646.34
2019-04-28T14:21:28.080Z,98650.66
2019-04-28T14:24:08.542Z,98636.37
2019-04-28T14:26:42.779Z,98633.66
2019-04-28T14:29:14.272Z,98641.50
2019-04-28T14:31:45.639Z,98650.98
2019-04-28T14:34:17.014Z,98645.14
2019-04-28T14:36:48.395Z,98641.80
2019-04-28T14:39:19.658Z,98648.20
2019-04-28T14:41:51.055Z,98642.41
2019-04-28T14:44:22.425Z,98649.98
2019-04-28T14:47:01.134Z,98647.07
2019-04-28T14:49:40.360Z,98653.11
2019-04-28T14:52:23.046Z,98640.54
2019-04-28T14:54:54.422Z,98647.22
2019-04-28T14:57:25.720Z,98641.23
2019-04-28T14:59:58.246Z,98646.62
2019-04-28T15:02:56.821Z,98641.42
2019-04-28T15:05:47.198Z,98636.80
2019-04-28T15:08:49.132Z,98637.05
2019-04-28T15:11:31.113Z,98627.23
2019-04-28T15:14:06.402Z,98622.63
2019-04-28T15:16:37.829Z,98622.85
2019-04-28T15:19:09.425Z,98624.42
2019-04-28T15:21:40.811Z,98625.49
2019-04-28T15:24:12.110Z,98630.70
2019-04-28T15:26:43.520Z,98619.70
2019-04-28T15:29:15.080Z,98627.05
2019-04-28T15:31:46.626Z,98623.88
2019-04-28T15:34:17.920Z,98623.09
2019-04-28T15:36:49.288Z,98626.08
2019-04-28T15:39:20.667Z,98617.05
2019-04-28T15:41:52.084Z,98616.55
2019-04-28T15:44:23.361Z,98623.50
2019-04-28T15:46:54.669Z,98621.64
2019-04-28T15:49:26.030Z,98626.25
2019-04-28T15:51:57.441Z,98623.03
2019-04-28T15:54:31.142Z,98629.83
2019-04-28T15:57:02.527Z,98623.90
2019-04-28T15:59:33.938Z,98619.86
2019-04-28T16:02:05.362Z,98627.16
2019-04-28T16:04:36.646Z,98626.10
2019-04-28T16:07:08.050Z,98626.41
2019-04-28T16:09:41.033Z,98622.14
2019-04-28T16:12:12.431Z,98621.05
2019-04-28T16:14:43.738Z,98628.31
2019-04-28T16:17:15.153Z,98628.87
2019-04-28T16:19:46.496Z,98625.09
2019-04-28T16:22:17.958Z,98628.61
2019-04-28T16:25:01.301Z,98624.31
2019-04-28T16:27:32.667Z,98635.35
2019-04-28T16:30:04.282Z,98627.23
2019-04-28T16:32:35.599Z,98629.13
2019-04-28T16:35:09.198Z,98630.21
2019-04-28T16:37:40.628Z,98634.55
2019-04-28T16:40:12.033Z,98637.76
2019-04-28T16:42:45.332Z,98632.66
2019-04-28T16:45:20.850Z,98636.71
2019-04-28T16:47:52.284Z,98630.27
2019-04-28T16:50:23.785Z,98623.05
2019-04-28T16:52:55.070Z,98623.66
2019-04-28T16:55:33.036Z,98622.08
2019-04-28T16:58:27.452Z,98623.17
2019-04-28T17:01:16.373Z,98632.32
2019-04-28T17:03:47.568Z,98635.27
2019-04-28T17:06:18.842Z,98633.39
2019-04-28T17:08:50.179Z,98644.13
2019-04-28T17:11:21.544Z,98641.18
2019-04-28T17:13:52.916Z,98644.08
2019-04-28T17:16:24.349Z,98655.05
2019-04-28T17:18:55.734Z,98660.13
2019-04-28T17:21:27.145Z,98660.64
2019-04-28T17:23:58.475Z,98670.77
2019-04-28T17:26:29.962Z,98669.69
2019-04-28T17:29:01.481Z,98680.60
2019-04-28T17:31:32.874Z,98678.42
2019-04-28T17:34:04.517Z,98683.17
2019-04-28T17:36:35.914Z,98685.23
2019-04-28T17:39:14.625Z,98692.41
2019-04-28T17:41:46.006Z,98692.09
2019-04-28T17:44:17.469Z,98693.06
2019-04-28T17:46:48.794Z,98695.39
2019-04-28T17:49:26.036Z,98698.83
2019-04-28T17:51:57.373Z,98704.13
2019-04-28T17:54:28.770Z,98709.38
2019-04-28T17:57:00.019Z,98717.62
2019-04-28T17:59:31.352Z,98721.72
2019-04-28T18:02:20.386Z,98722.70
2019-04-28T18:05:20.659Z,98738.34
2019-04-28T18:07:56.668Z,98738.34
2019-04-28T18:10:28.144Z,98736.57
2019-04-28T18:13:01.037Z,98736.17
2019-04-28T18:15:44.792Z,98747.47
2019-04-28T18:18:53.261Z,98754.52
2019-04-28T18:21:24.627Z,98754.52
2019-04-28T18:23:55.995Z,98753.02
2019-04-28T18:26:27.400Z,98753.02
2019-04-28T18:28:58.851Z,98745.08
2019-04-28T18:31:40.230Z,98745.08
2019-04-28T18:34:36.536Z,98741.38
2019-04-28T18:37:29.901Z,98731.16
2019-04-28T18:40:19.027Z,98731.16
2019-04-28T18:42:56.434Z,98747.48
2019-04-28T18:45:28.502Z,98751.95
2019-04-28T18:47:59.880Z,98752.44
2019-04-28T18:50:31.224Z,98758.52
2019-04-28T18:53:02.600Z,98749.95
2019-04-28T18:55:33.941Z,98749.70
2019-04-28T18:58:05.297Z,98742.73
2019-04-28T19:00:38.985Z,98738.17
2019-04-28T19:03:10.448Z,98738.17
2019-04-28T19:05:43.388Z,98743.84
2019-04-28T19:08:48.053Z,98746.02
2019-04-28T19:11:20.141Z,98746.02
2019-04-28T19:13:56.410Z,98761.80
2019-04-28T19:16:52.676Z,98761.80
2019-04-28T19:19:24.354Z,98770.59
2019-04-28T19:21:56.388Z,98770.59
2019-04-28T19:24:30.651Z,98776.45
2019-04-28T19:27:01.992Z,98776.67
2019-04-28T19:29:33.329Z,98778.05
2019-04-28T19:32:04.669Z,98778.05
2019-04-28T19:34:35.954Z,98783.13
2019-04-28T19:37:07.382Z,98780.09
2019-04-28T19:39:40.879Z,98786.47
2019-04-28T19:42:12.003Z,98787.43
2019-04-28T19:44:43.277Z,98792.47
2019-04-28T19:47:14.618Z,98792.47
2019-04-28T19:49:45.890Z,98796.91
2019-04-28T19:52:17.170Z,98795.20
2019-04-28T19:55:11.297Z,98795.20
2019-04-28T19:57:47.549Z,98793.28
2019-04-28T20:00:28.475Z,98787.38
2019-04-28T20:02:59.738Z,98787.38
2019-04-28T20:05:31.146Z,98788.07
2019-04-28T20:08:02.411Z,98783.99
2019-04-28T20:10:33.782Z,98783.99
2019-04-28T20:13:05.081Z,98795.09
2019-04-28T20:15:36.507Z,98795.56
2019-04-28T20:18:07.866Z,98798.70
2019-04-28T20:20:39.232Z,98795.14
2019-04-28T20:23:10.591Z,98795.31
2019-04-28T20:25:41.990Z,98794.19
2019-04-28T20:28:13.563Z,98791.66
2019-04-28T20:30:45.246Z,98788.86
2019-04-28T20:33:16.608Z,98797.33
2019-04-28T20:35:52.909Z,98797.33
2019-04-28T20:38:30.099Z,98795.95
2019-04-28T20:41:13.356Z,98798.00
2019-04-28T20:43:44.633Z,98798.42
2019-04-28T20:46:15.971Z,98797.69
2019-04-28T20:48:47.232Z,98791.75
2019-04-28T20:51:18.485Z,98799.60
2019-04-28T20:53:49.830Z,98795.24
2019-04-28T20:56:21.102Z,98798.38
2019-04-28T20:58:52.405Z,98794.55
2019-04-28T21:01:23.712Z,98796.08
2019-04-28T21:03:55.049Z,98796.75
2019-04-28T21:06:26.413Z,98793.17
2019-04-28T21:08:57.786Z,98792.97
2019-04-28T21:11:29.268Z,98792.97
2019-04-28T21:14:00.547Z,98793.67
2019-04-28T21:16:31.858Z,98794.84
2019-04-28T21:19:03.244Z,98793.97
2019-04-28T21:21:34.581Z,98787.51
2019-04-28T21:24:05.864Z,98785.25
2019-04-28T21:26:37.187Z,98783.16
2019-04-28T21:29:08.561Z,98783.56
2019-04-28T21:31:41.582Z,98786.16
2019-04-28T21:34:13.085Z,98779.19
2019-04-28T21:36:44.416Z,98780.73
2019-04-28T21:39:15.710Z,98782.00
2019-04-28T21:41:47.013Z,98785.42
2019-04-28T21:44:27.760Z,98781.13
2019-04-28T21:47:03.941Z,98773.16
2019-04-28T21:49:38.397Z,98779.28
2019-04-28T21:52:09.877Z,98777.77
2019-04-28T21:54:41.341Z,98780.43
2019-04-28T21:57:12.626Z,98783.45
2019-04-28T21:59:43.959Z,98785.03
2019-04-28T22:02:15.225Z,98784.54
2019-04-28T22:04:48.143Z,98782.13
2019-04-28T22:07:19.425Z,98781.72
2019-04-28T22:09:50.748Z,98784.11
2019-04-28T22:12:23.803Z,98779.76
2019-04-28T22:14:55.880Z,98782.58
2019-04-28T22:17:27.178Z,98780.92
2019-04-28T22:19:58.441Z,98780.56
2019-04-28T22:22:29.838Z,98788.75
2019-04-28T22:25:14.232Z,98786.33
2019-04-28T22:27:45.609Z,98796.67
2019-04-28T22:30:17.066Z,98791.02
2019-04-28T22:32:49.933Z,98789.59
2019-04-28T22:35:23.704Z,98790.05
2019-04-28T22:37:56.268Z,98794.80
2019-04-28T22:40:31.288Z,98792.59
2019-04-28T22:43:02.631Z,98789.87
2019-04-28T22:45:33.980Z,98791.72
2019-04-28T22:48:06.850Z,98788.48
2019-04-28T22:50:44.200Z,98790.57
2019-04-28T22:53:19.623Z,98789.18
2019-04-28T22:56:04.658Z,98784.83
2019-04-28T22:58:47.343Z,98785.59
2019-04-28T23:01:29.189Z,98785.47
2019-04-28T23:04:09.251Z,98785.61
2019-04-28T23:06:40.960Z,98784.28
2019-04-28T23:09:13.933Z,98785.31
2019-04-28T23:11:45.229Z,98780.00
2019-04-28T23:14:16.566Z,98780.23
2019-04-28T23:16:48.763Z,98781.77
2019-04-28T23:19:22.098Z,98781.50
2019-04-28T23:21:59.617Z,98776.19
2019-04-28T23:24:30.916Z,98774.56
2019-04-28T23:27:02.371Z,98776.55
2019-04-28T23:29:35.618Z,98775.73
2019-04-28T23:32:07.332Z,98771.45
2019-04-28T23:34:38.663Z,98775.13
2019-04-28T23:37:10.026Z,98770.64
2019-04-28T23:39:41.388Z,98768.80
2019-04-28T23:42:19.110Z,98769.09
2019-04-28T23:44:50.452Z,98767.77
2019-04-28T23:47:21.789Z,98766.71
2019-04-28T23:49:53.030Z,98768.64
2019-04-28T23:52:52.169Z,98761.40
2019-04-28T23:55:25.003Z,98762.45
2019-04-28T23:57:56.281Z,98759.73
